sensor_id;sensor_type;location;lat;lon;timestamp;P1;durP1;ratioP1;P2;durP2;ratioP2
20138;SDS011;10230;51.502;10.800;2023-08-21T00:00:25;6.57;;;4.55;;
20138;SDS011;10230;51.502;10.800;2023-08-21T00:02:51;7.38;;;4.65;;
20138;SDS011;10230;51.502;10.800;2023-08-21T00:05:17;6.85;;;4.45;;
20138;SDS011;10230;51.502;10.800;2023-08-21T00:07:43;5.75;;;4.93;;
20138;SDS011;10230;51.502;10.800;2023-08-21T00:10:10;5.78;;;4.88;;
20138;SDS011;10230;51.502;10.800;2023-08-21T00:12:39;6.95;;;5.07;;
20138;SDS011;10230;51.502;10.800;2023-08-21T00:15:05;9.35;;;4.68;;
20138;SDS011;10230;51.502;10.800;2023-08-21T00:17:31;6.20;;;4.50;;
20138;SDS011;10230;51.502;10.800;2023-08-21T00:19:57;4.90;;;4.40;;
20138;SDS011;10230;51.502;10.800;2023-08-21T00:22:23;5.15;;;4.65;;
20138;SDS011;10230;51.502;10.800;2023-08-21T00:24:49;4.85;;;4.45;;
20138;SDS011;10230;51.502;10.800;2023-08-21T00:27:15;5.38;;;4.40;;
20138;SDS011;10230;51.502;10.800;2023-08-21T00:29:41;7.30;;;5.00;;
20138;SDS011;10230;51.502;10.800;2023-08-21T00:32:08;6.70;;;5.35;;
20138;SDS011;10230;51.502;10.800;2023-08-21T00:34:34;8.63;;;5.13;;
20138;SDS011;10230;51.502;10.800;2023-08-21T00:37:00;5.72;;;4.55;;
20138;SDS011;10230;51.502;10.800;2023-08-21T00:39:26;6.80;;;4.78;;
20138;SDS011;10230;51.502;10.800;2023-08-21T00:41:52;5.28;;;4.78;;
20138;SDS011;10230;51.502;10.800;2023-08-21T00:44:18;7.43;;;5.30;;
20138;SDS011;10230;51.502;10.800;2023-08-21T00:46:44;5.57;;;5.00;;
20138;SDS011;10230;51.502;10.800;2023-08-21T00:49:10;7.32;;;4.75;;
20138;SDS011;10230;51.502;10.800;2023-08-21T00:51:37;5.53;;;4.93;;
20138;SDS011;10230;51.502;10.800;2023-08-21T00:54:03;5.28;;;4.78;;
20138;SDS011;10230;51.502;10.800;2023-08-21T00:56:29;5.43;;;4.82;;
20138;SDS011;10230;51.502;10.800;2023-08-21T00:58:56;5.38;;;4.85;;
20138;SDS011;10230;51.502;10.800;2023-08-21T01:01:23;8.85;;;4.75;;
20138;SDS011;10230;51.502;10.800;2023-08-21T01:03:50;5.68;;;4.72;;
20138;SDS011;10230;51.502;10.800;2023-08-21T01:06:17;5.32;;;4.82;;
20138;SDS011;10230;51.502;10.800;2023-08-21T01:08:57;6.35;;;5.18;;
20138;SDS011;10230;51.502;10.800;2023-08-21T01:16:27;7.15;;;5.90;;
20138;SDS011;10230;51.502;10.800;2023-08-21T01:18:53;6.22;;;4.85;;
20138;SDS011;10230;51.502;10.800;2023-08-21T01:21:22;5.88;;;5.10;;
20138;SDS011;10230;51.502;10.800;2023-08-21T01:23:48;5.97;;;5.38;;
20138;SDS011;10230;51.502;10.800;2023-08-21T01:26:14;10.73;;;5.38;;
20138;SDS011;10230;51.502;10.800;2023-08-21T01:28:40;5.20;;;4.70;;
20138;SDS011;10230;51.502;10.800;2023-08-21T01:33:58;7.15;;;5.70;;
20138;SDS011;10230;51.502;10.800;2023-08-21T01:36:24;6.30;;;5.10;;
20138;SDS011;10230;51.502;10.800;2023-08-21T01:38:51;5.82;;;5.22;;
20138;SDS011;10230;51.502;10.800;2023-08-21T01:41:17;7.78;;;4.95;;
20138;SDS011;10230;51.502;10.800;2023-08-21T01:43:43;5.53;;;4.72;;
20138;SDS011;10230;51.502;10.800;2023-08-21T01:46:09;5.50;;;4.57;;
20138;SDS011;10230;51.502;10.800;2023-08-21T01:48:35;6.68;;;5.50;;
20138;SDS011;10230;51.502;10.800;2023-08-21T01:51:02;5.65;;;5.03;;
20138;SDS011;10230;51.502;10.800;2023-08-21T01:53:28;5.93;;;5.07;;
20138;SDS011;10230;51.502;10.800;2023-08-21T01:55:54;7.97;;;7.18;;
20138;SDS011;10230;51.502;10.800;2023-08-21T01:58:20;6.22;;;5.63;;
20138;SDS011;10230;51.502;10.800;2023-08-21T02:00:46;7.10;;;5.60;;
20138;SDS011;10230;51.502;10.800;2023-08-21T02:03:12;11.63;;;6.78;;
20138;SDS011;10230;51.502;10.800;2023-08-21T02:05:38;6.00;;;5.50;;
20138;SDS011;10230;51.502;10.800;2023-08-21T02:08:09;6.88;;;6.13;;
20138;SDS011;10230;51.502;10.800;2023-08-21T02:10:35;6.95;;;5.72;;
20138;SDS011;10230;51.502;10.800;2023-08-21T02:13:01;6.47;;;5.03;;
20138;SDS011;10230;51.502;10.800;2023-08-21T02:15:27;6.57;;;5.25;;
20138;SDS011;10230;51.502;10.800;2023-08-21T02:17:54;7.40;;;5.55;;
20138;SDS011;10230;51.502;10.800;2023-08-21T02:20:20;5.53;;;4.85;;
20138;SDS011;10230;51.502;10.800;2023-08-21T02:22:46;6.13;;;4.88;;
20138;SDS011;10230;51.502;10.800;2023-08-21T02:25:12;5.63;;;4.40;;
20138;SDS011;10230;51.502;10.800;2023-08-21T02:27:38;7.05;;;4.80;;
20138;SDS011;10230;51.502;10.800;2023-08-21T02:30:04;4.78;;;4.28;;
20138;SDS011;10230;51.502;10.800;2023-08-21T02:32:30;6.53;;;4.65;;
20138;SDS011;10230;51.502;10.800;2023-08-21T02:34:56;5.45;;;4.00;;
20138;SDS011;10230;51.502;10.800;2023-08-21T02:37:22;6.00;;;4.28;;
20138;SDS011;10230;51.502;10.800;2023-08-21T02:39:48;4.88;;;3.33;;
20138;SDS011;10230;51.502;10.800;2023-08-21T02:42:14;6.85;;;3.80;;
20138;SDS011;10230;51.502;10.800;2023-08-21T02:44:40;4.63;;;3.60;;
20138;SDS011;10230;51.502;10.800;2023-08-21T02:47:06;4.18;;;3.60;;
20138;SDS011;10230;51.502;10.800;2023-08-21T02:49:32;4.03;;;3.40;;
20138;SDS011;10230;51.502;10.800;2023-08-21T02:51:58;4.72;;;3.13;;
20138;SDS011;10230;51.502;10.800;2023-08-21T02:54:24;4.75;;;3.55;;
20138;SDS011;10230;51.502;10.800;2023-08-21T02:56:50;4.72;;;3.42;;
20138;SDS011;10230;51.502;10.800;2023-08-21T02:59:16;4.78;;;3.63;;
20138;SDS011;10230;51.502;10.800;2023-08-21T03:01:42;3.85;;;3.35;;
20138;SDS011;10230;51.502;10.800;2023-08-21T03:04:08;4.03;;;3.53;;
20138;SDS011;10230;51.502;10.800;2023-08-21T03:06:34;7.95;;;4.65;;
20138;SDS011;10230;51.502;10.800;2023-08-21T03:09:00;6.90;;;4.00;;
20138;SDS011;10230;51.502;10.800;2023-08-21T03:11:26;5.43;;;3.85;;
20138;SDS011;10230;51.502;10.800;2023-08-21T03:13:52;5.63;;;4.72;;
20138;SDS011;10230;51.502;10.800;2023-08-21T03:16:18;5.88;;;4.13;;
20138;SDS011;10230;51.502;10.800;2023-08-21T03:18:57;5.72;;;4.13;;
20138;SDS011;10230;51.502;10.800;2023-08-21T03:21:24;6.15;;;4.50;;
20138;SDS011;10230;51.502;10.800;2023-08-21T03:23:50;6.93;;;4.53;;
20138;SDS011;10230;51.502;10.800;2023-08-21T03:26:17;9.38;;;4.65;;
20138;SDS011;10230;51.502;10.800;2023-08-21T03:28:43;4.78;;;4.22;;
20138;SDS011;10230;51.502;10.800;2023-08-21T03:31:09;5.30;;;4.30;;
20138;SDS011;10230;51.502;10.800;2023-08-21T03:33:35;4.78;;;3.78;;
20138;SDS011;10230;51.502;10.800;2023-08-21T03:36:01;4.05;;;3.65;;
20138;SDS011;10230;51.502;10.800;2023-08-21T03:38:27;5.78;;;3.35;;
20138;SDS011;10230;51.502;10.800;2023-08-21T03:40:53;4.03;;;3.45;;
20138;SDS011;10230;51.502;10.800;2023-08-21T03:43:19;5.57;;;3.63;;
20138;SDS011;10230;51.502;10.800;2023-08-21T03:45:45;4.15;;;3.55;;
20138;SDS011;10230;51.502;10.800;2023-08-21T03:48:11;5.88;;;3.38;;
20138;SDS011;10230;51.502;10.800;2023-08-21T03:50:38;6.78;;;3.35;;
20138;SDS011;10230;51.502;10.800;2023-08-21T03:53:04;3.53;;;2.97;;
20138;SDS011;10230;51.502;10.800;2023-08-21T03:55:30;6.10;;;3.72;;
20138;SDS011;10230;51.502;10.800;2023-08-21T03:57:56;3.05;;;2.67;;
20138;SDS011;10230;51.502;10.800;2023-08-21T04:00:22;5.43;;;3.25;;
20138;SDS011;10230;51.502;10.800;2023-08-21T04:02:48;4.72;;;3.20;;
20138;SDS011;10230;51.502;10.800;2023-08-21T04:05:14;4.43;;;2.67;;
20138;SDS011;10230;51.502;10.800;2023-08-21T04:07:41;6.13;;;3.30;;
20138;SDS011;10230;51.502;10.800;2023-08-21T04:10:07;5.05;;;3.33;;
20138;SDS011;10230;51.502;10.800;2023-08-21T04:12:33;6.30;;;3.65;;
20138;SDS011;10230;51.502;10.800;2023-08-21T04:14:59;6.60;;;4.07;;
20138;SDS011;10230;51.502;10.800;2023-08-21T04:17:25;8.77;;;4.38;;
20138;SDS011;10230;51.502;10.800;2023-08-21T04:19:51;6.28;;;4.30;;
20138;SDS011;10230;51.502;10.800;2023-08-21T04:22:17;4.57;;;4.13;;
20138;SDS011;10230;51.502;10.800;2023-08-21T04:24:43;8.02;;;4.65;;
20138;SDS011;10230;51.502;10.800;2023-08-21T04:27:10;8.45;;;5.18;;
20138;SDS011;10230;51.502;10.800;2023-08-21T04:29:36;7.65;;;5.13;;
20138;SDS011;10230;51.502;10.800;2023-08-21T04:32:02;5.35;;;4.85;;
20138;SDS011;10230;51.502;10.800;2023-08-21T04:34:28;8.40;;;5.57;;
20138;SDS011;10230;51.502;10.800;2023-08-21T04:36:54;6.45;;;4.97;;
20138;SDS011;10230;51.502;10.800;2023-08-21T04:39:20;8.70;;;5.38;;
20138;SDS011;10230;51.502;10.800;2023-08-21T04:41:46;7.88;;;5.68;;
20138;SDS011;10230;51.502;10.800;2023-08-21T04:44:12;10.27;;;5.40;;
20138;SDS011;10230;51.502;10.800;2023-08-21T04:46:38;8.35;;;5.43;;
20138;SDS011;10230;51.502;10.800;2023-08-21T04:49:04;8.35;;;5.10;;
20138;SDS011;10230;51.502;10.800;2023-08-21T04:51:30;5.95;;;5.40;;
20138;SDS011;10230;51.502;10.800;2023-08-21T04:53:56;6.88;;;5.90;;
20138;SDS011;10230;51.502;10.800;2023-08-21T04:56:24;7.93;;;5.63;;
20138;SDS011;10230;51.502;10.800;2023-08-21T04:58:50;6.90;;;5.78;;
20138;SDS011;10230;51.502;10.800;2023-08-21T05:01:16;8.23;;;5.28;;
20138;SDS011;10230;51.502;10.800;2023-08-21T05:03:42;7.07;;;5.47;;
20138;SDS011;10230;51.502;10.800;2023-08-21T05:06:08;6.55;;;5.82;;
20138;SDS011;10230;51.502;10.800;2023-08-21T05:08:34;6.93;;;5.40;;
20138;SDS011;10230;51.502;10.800;2023-08-21T05:11:00;7.18;;;6.43;;
20138;SDS011;10230;51.502;10.800;2023-08-21T05:13:27;6.40;;;5.65;;
20138;SDS011;10230;51.502;10.800;2023-08-21T05:18:22;9.75;;;6.32;;
20138;SDS011;10230;51.502;10.800;2023-08-21T05:20:49;9.40;;;6.97;;
20138;SDS011;10230;51.502;10.800;2023-08-21T05:23:15;5.97;;;5.10;;
20138;SDS011;10230;51.502;10.800;2023-08-21T05:25:44;8.43;;;5.45;;
20138;SDS011;10230;51.502;10.800;2023-08-21T05:28:10;8.05;;;5.53;;
20138;SDS011;10230;51.502;10.800;2023-08-21T05:30:37;6.25;;;4.93;;
20138;SDS011;10230;51.502;10.800;2023-08-21T05:33:04;8.80;;;6.28;;
20138;SDS011;10230;51.502;10.800;2023-08-21T05:35:33;7.70;;;5.82;;
20138;SDS011;10230;51.502;10.800;2023-08-21T05:38:00;7.20;;;5.53;;
20138;SDS011;10230;51.502;10.800;2023-08-21T05:40:26;4.97;;;4.38;;
20138;SDS011;10230;51.502;10.800;2023-08-21T05:42:52;6.47;;;5.53;;
20138;SDS011;10230;51.502;10.800;2023-08-21T05:45:18;5.60;;;4.95;;
20138;SDS011;10230;51.502;10.800;2023-08-21T05:47:44;8.80;;;5.13;;
20138;SDS011;10230;51.502;10.800;2023-08-21T05:50:11;6.13;;;5.28;;
20138;SDS011;10230;51.502;10.800;2023-08-21T05:52:37;7.80;;;5.85;;
20138;SDS011;10230;51.502;10.800;2023-08-21T05:55:04;7.10;;;5.60;;
20138;SDS011;10230;51.502;10.800;2023-08-21T05:57:30;6.03;;;4.88;;
20138;SDS011;10230;51.502;10.800;2023-08-21T05:59:56;8.63;;;5.60;;
20138;SDS011;10230;51.502;10.800;2023-08-21T06:02:22;9.27;;;7.00;;
20138;SDS011;10230;51.502;10.800;2023-08-21T06:04:48;6.18;;;5.35;;
20138;SDS011;10230;51.502;10.800;2023-08-21T06:07:14;11.68;;;6.63;;
20138;SDS011;10230;51.502;10.800;2023-08-21T06:09:40;6.95;;;5.60;;
20138;SDS011;10230;51.502;10.800;2023-08-21T06:12:06;8.18;;;6.10;;
20138;SDS011;10230;51.502;10.800;2023-08-21T06:14:32;10.45;;;5.50;;
20138;SDS011;10230;51.502;10.800;2023-08-21T06:16:59;5.97;;;5.47;;
20138;SDS011;10230;51.502;10.800;2023-08-21T06:19:26;12.07;;;5.97;;
20138;SDS011;10230;51.502;10.800;2023-08-21T06:21:52;12.52;;;5.90;;
20138;SDS011;10230;51.502;10.800;2023-08-21T06:24:18;7.50;;;4.97;;
20138;SDS011;10230;51.502;10.800;2023-08-21T06:26:44;8.75;;;5.80;;
20138;SDS011;10230;51.502;10.800;2023-08-21T06:29:10;6.68;;;4.82;;
20138;SDS011;10230;51.502;10.800;2023-08-21T06:31:36;8.05;;;5.75;;
20138;SDS011;10230;51.502;10.800;2023-08-21T06:34:02;8.98;;;4.63;;
20138;SDS011;10230;51.502;10.800;2023-08-21T06:36:28;5.30;;;4.10;;
20138;SDS011;10230;51.502;10.800;2023-08-21T06:38:55;7.35;;;5.32;;
20138;SDS011;10230;51.502;10.800;2023-08-21T06:41:21;7.70;;;6.00;;
20138;SDS011;10230;51.502;10.800;2023-08-21T06:43:47;8.20;;;5.57;;
20138;SDS011;10230;51.502;10.800;2023-08-21T06:46:13;5.80;;;4.32;;
20138;SDS011;10230;51.502;10.800;2023-08-21T06:48:40;5.93;;;4.25;;
20138;SDS011;10230;51.502;10.800;2023-08-21T06:51:06;6.88;;;4.30;;
20138;SDS011;10230;51.502;10.800;2023-08-21T06:53:32;6.93;;;4.90;;
20138;SDS011;10230;51.502;10.800;2023-08-21T06:55:58;6.22;;;4.45;;
20138;SDS011;10230;51.502;10.800;2023-08-21T06:58:24;5.88;;;4.47;;
20138;SDS011;10230;51.502;10.800;2023-08-21T07:00:50;9.20;;;4.78;;
20138;SDS011;10230;51.502;10.800;2023-08-21T07:03:16;6.38;;;3.30;;
20138;SDS011;10230;51.502;10.800;2023-08-21T07:05:45;7.13;;;3.75;;
20138;SDS011;10230;51.502;10.800;2023-08-21T07:08:13;6.95;;;4.28;;
20138;SDS011;10230;51.502;10.800;2023-08-21T07:10:39;7.93;;;4.25;;
20138;SDS011;10230;51.502;10.800;2023-08-21T07:13:05;5.10;;;3.72;;
20138;SDS011;10230;51.502;10.800;2023-08-21T07:15:31;7.30;;;3.92;;
20138;SDS011;10230;51.502;10.800;2023-08-21T07:17:57;9.00;;;3.90;;
20138;SDS011;10230;51.502;10.800;2023-08-21T07:20:23;7.10;;;3.72;;
20138;SDS011;10230;51.502;10.800;2023-08-21T07:22:49;4.03;;;3.00;;
20138;SDS011;10230;51.502;10.800;2023-08-21T07:25:15;4.15;;;3.10;;
20138;SDS011;10230;51.502;10.800;2023-08-21T07:27:42;5.00;;;3.33;;
20138;SDS011;10230;51.502;10.800;2023-08-21T07:30:08;5.30;;;4.00;;
20138;SDS011;10230;51.502;10.800;2023-08-21T07:32:35;8.60;;;3.67;;
20138;SDS011;10230;51.502;10.800;2023-08-21T07:35:02;5.55;;;3.50;;
20138;SDS011;10230;51.502;10.800;2023-08-21T07:37:28;5.57;;;3.08;;
20138;SDS011;10230;51.502;10.800;2023-08-21T07:39:54;5.68;;;4.22;;
20138;SDS011;10230;51.502;10.800;2023-08-21T07:42:22;4.18;;;3.47;;
20138;SDS011;10230;51.502;10.800;2023-08-21T07:44:48;8.05;;;3.45;;
20138;SDS011;10230;51.502;10.800;2023-08-21T07:47:15;5.53;;;3.58;;
20138;SDS011;10230;51.502;10.800;2023-08-21T07:49:41;5.18;;;3.50;;
20138;SDS011;10230;51.502;10.800;2023-08-21T07:52:07;5.65;;;3.75;;
20138;SDS011;10230;51.502;10.800;2023-08-21T07:54:33;9.00;;;4.75;;
20138;SDS011;10230;51.502;10.800;2023-08-21T07:56:59;7.05;;;4.60;;
20138;SDS011;10230;51.502;10.800;2023-08-21T07:59:25;8.10;;;5.28;;
20138;SDS011;10230;51.502;10.800;2023-08-21T08:01:51;13.15;;;5.13;;
20138;SDS011;10230;51.502;10.800;2023-08-21T08:04:17;6.65;;;3.92;;
20138;SDS011;10230;51.502;10.800;2023-08-21T08:06:45;6.90;;;3.90;;
20138;SDS011;10230;51.502;10.800;2023-08-21T08:09:11;6.50;;;3.75;;
20138;SDS011;10230;51.502;10.800;2023-08-21T08:11:37;6.07;;;4.43;;
20138;SDS011;10230;51.502;10.800;2023-08-21T08:14:03;7.35;;;3.83;;
20138;SDS011;10230;51.502;10.800;2023-08-21T08:16:29;6.30;;;4.28;;
20138;SDS011;10230;51.502;10.800;2023-08-21T08:18:55;7.88;;;4.53;;
20138;SDS011;10230;51.502;10.800;2023-08-21T08:21:21;3.97;;;2.65;;
20138;SDS011;10230;51.502;10.800;2023-08-21T08:23:47;6.95;;;3.17;;
20138;SDS011;10230;51.502;10.800;2023-08-21T08:26:13;5.25;;;2.38;;
20138;SDS011;10230;51.502;10.800;2023-08-21T08:28:39;4.50;;;2.38;;
20138;SDS011;10230;51.502;10.800;2023-08-21T08:31:05;5.03;;;2.60;;
20138;SDS011;10230;51.502;10.800;2023-08-21T08:33:31;2.78;;;1.80;;
20138;SDS011;10230;51.502;10.800;2023-08-21T08:35:57;4.40;;;1.90;;
20138;SDS011;10230;51.502;10.800;2023-08-21T08:38:23;4.05;;;1.80;;
20138;SDS011;10230;51.502;10.800;2023-08-21T08:40:49;2.58;;;1.70;;
20138;SDS011;10230;51.502;10.800;2023-08-21T08:43:16;3.30;;;2.13;;
20138;SDS011;10230;51.502;10.800;2023-08-21T08:45:43;4.97;;;2.67;;
20138;SDS011;10230;51.502;10.800;2023-08-21T08:48:11;3.75;;;2.10;;
20138;SDS011;10230;51.502;10.800;2023-08-21T08:50:38;4.13;;;2.17;;
20138;SDS011;10230;51.502;10.800;2023-08-21T08:53:04;3.53;;;2.10;;
20138;SDS011;10230;51.502;10.800;2023-08-21T08:55:33;4.72;;;2.35;;
20138;SDS011;10230;51.502;10.800;2023-08-21T08:57:59;5.22;;;2.15;;
20138;SDS011;10230;51.502;10.800;2023-08-21T09:00:25;4.53;;;1.90;;
20138;SDS011;10230;51.502;10.800;2023-08-21T09:02:51;2.95;;;1.77;;
20138;SDS011;10230;51.502;10.800;2023-08-21T09:05:17;2.53;;;1.30;;
20138;SDS011;10230;51.502;10.800;2023-08-21T09:07:43;2.20;;;1.48;;
20138;SDS011;10230;51.502;10.800;2023-08-21T09:10:13;3.35;;;1.67;;
20138;SDS011;10230;51.502;10.800;2023-08-21T09:12:44;2.13;;;1.50;;
20138;SDS011;10230;51.502;10.800;2023-08-21T09:15:11;2.03;;;1.52;;
20138;SDS011;10230;51.502;10.800;2023-08-21T09:17:37;1.90;;;1.70;;
20138;SDS011;10230;51.502;10.800;2023-08-21T09:20:04;2.53;;;1.60;;
20138;SDS011;10230;51.502;10.800;2023-08-21T09:22:30;2.42;;;2.05;;
20138;SDS011;10230;51.502;10.800;2023-08-21T09:25:00;2.22;;;1.90;;
20138;SDS011;10230;51.502;10.800;2023-08-21T09:27:29;2.00;;;1.80;;
20138;SDS011;10230;51.502;10.800;2023-08-21T09:29:55;2.95;;;1.88;;
20138;SDS011;10230;51.502;10.800;2023-08-21T09:32:23;2.78;;;2.08;;
20138;SDS011;10230;51.502;10.800;2023-08-21T09:34:49;5.85;;;2.10;;
20138;SDS011;10230;51.502;10.800;2023-08-21T09:37:16;2.25;;;1.60;;
20138;SDS011;10230;51.502;10.800;2023-08-21T09:39:45;4.80;;;2.10;;
20138;SDS011;10230;51.502;10.800;2023-08-21T09:42:11;2.63;;;1.80;;
20138;SDS011;10230;51.502;10.800;2023-08-21T09:44:40;2.75;;;1.60;;
20138;SDS011;10230;51.502;10.800;2023-08-21T09:47:08;3.97;;;2.25;;
20138;SDS011;10230;51.502;10.800;2023-08-21T09:49:35;2.50;;;1.83;;
20138;SDS011;10230;51.502;10.800;2023-08-21T09:52:03;4.95;;;1.90;;
20138;SDS011;10230;51.502;10.800;2023-08-21T09:54:30;2.30;;;1.80;;
20138;SDS011;10230;51.502;10.800;2023-08-21T09:56:57;3.45;;;2.15;;
20138;SDS011;10230;51.502;10.800;2023-08-21T09:59:24;4.22;;;2.00;;
20138;SDS011;10230;51.502;10.800;2023-08-21T10:01:50;2.47;;;1.95;;
20138;SDS011;10230;51.502;10.800;2023-08-21T10:04:17;2.17;;;1.98;;
20138;SDS011;10230;51.502;10.800;2023-08-21T10:06:44;3.50;;;1.92;;
20138;SDS011;10230;51.502;10.800;2023-08-21T10:09:10;3.78;;;2.40;;
20138;SDS011;10230;51.502;10.800;2023-08-21T10:11:36;2.95;;;2.13;;
20138;SDS011;10230;51.502;10.800;2023-08-21T10:14:03;5.80;;;1.80;;
20138;SDS011;10230;51.502;10.800;2023-08-21T10:16:29;9.57;;;2.55;;
20138;SDS011;10230;51.502;10.800;2023-08-21T10:18:55;3.35;;;2.08;;
20138;SDS011;10230;51.502;10.800;2023-08-21T10:21:22;2.58;;;1.58;;
20138;SDS011;10230;51.502;10.800;2023-08-21T10:23:52;7.40;;;2.40;;
20138;SDS011;10230;51.502;10.800;2023-08-21T10:26:20;3.83;;;2.45;;
20138;SDS011;10230;51.502;10.800;2023-08-21T10:28:59;2.88;;;1.80;;
20138;SDS011;10230;51.502;10.800;2023-08-21T10:31:38;3.03;;;1.90;;
20138;SDS011;10230;51.502;10.800;2023-08-21T10:34:08;3.58;;;1.77;;
20138;SDS011;10230;51.502;10.800;2023-08-21T10:39:16;2.85;;;2.10;;
20138;SDS011;10230;51.502;10.800;2023-08-21T10:44:35;3.25;;;1.95;;
20138;SDS011;10230;51.502;10.800;2023-08-21T10:49:49;1.98;;;1.75;;
20138;SDS011;10230;51.502;10.800;2023-08-21T10:52:19;2.13;;;1.92;;
20138;SDS011;10230;51.502;10.800;2023-08-21T10:54:47;2.83;;;2.28;;
20138;SDS011;10230;51.502;10.800;2023-08-21T10:57:13;4.63;;;2.10;;
20138;SDS011;10230;51.502;10.800;2023-08-21T10:59:48;1.80;;;1.42;;
20138;SDS011;10230;51.502;10.800;2023-08-21T11:02:14;2.25;;;2.03;;
20138;SDS011;10230;51.502;10.800;2023-08-21T11:04:40;1.98;;;1.70;;
20138;SDS011;10230;51.502;10.800;2023-08-21T11:07:09;1.83;;;1.67;;
20138;SDS011;10230;51.502;10.800;2023-08-21T11:09:35;1.70;;;1.60;;
20138;SDS011;10230;51.502;10.800;2023-08-21T11:12:08;2.28;;;1.80;;
20138;SDS011;10230;51.502;10.800;2023-08-21T11:14:34;1.98;;;1.80;;
20138;SDS011;10230;51.502;10.800;2023-08-21T11:17:01;2.40;;;1.60;;
20138;SDS011;10230;51.502;10.800;2023-08-21T11:19:29;2.38;;;1.80;;
20138;SDS011;10230;51.502;10.800;2023-08-21T11:21:55;1.80;;;1.60;;
20138;SDS011;10230;51.502;10.800;2023-08-21T11:24:22;1.95;;;1.70;;
20138;SDS011;10230;51.502;10.800;2023-08-21T11:26:48;1.90;;;1.70;;
20138;SDS011;10230;51.502;10.800;2023-08-21T11:29:14;2.40;;;1.55;;
20138;SDS011;10230;51.502;10.800;2023-08-21T11:31:40;3.60;;;1.75;;
20138;SDS011;10230;51.502;10.800;2023-08-21T11:34:06;2.25;;;1.60;;
20138;SDS011;10230;51.502;10.800;2023-08-21T11:36:32;3.45;;;1.73;;
20138;SDS011;10230;51.502;10.800;2023-08-21T11:39:02;2.10;;;1.70;;
20138;SDS011;10230;51.502;10.800;2023-08-21T11:41:52;1.60;;;1.50;;
20138;SDS011;10230;51.502;10.800;2023-08-21T11:44:18;2.30;;;1.70;;
20138;SDS011;10230;51.502;10.800;2023-08-21T11:46:45;3.55;;;2.00;;
20138;SDS011;10230;51.502;10.800;2023-08-21T11:49:11;3.03;;;1.88;;
20138;SDS011;10230;51.502;10.800;2023-08-21T11:51:40;2.38;;;2.17;;
20138;SDS011;10230;51.502;10.800;2023-08-21T11:54:06;3.67;;;1.40;;
20138;SDS011;10230;51.502;10.800;2023-08-21T11:56:32;15.23;;;3.70;;
20138;SDS011;10230;51.502;10.800;2023-08-21T11:58:58;3.55;;;2.20;;
20138;SDS011;10230;51.502;10.800;2023-08-21T12:01:24;4.18;;;1.65;;
20138;SDS011;10230;51.502;10.800;2023-08-21T12:03:50;2.03;;;1.77;;
20138;SDS011;10230;51.502;10.800;2023-08-21T12:06:19;4.75;;;1.80;;
20138;SDS011;10230;51.502;10.800;2023-08-21T12:08:45;5.88;;;2.67;;
20138;SDS011;10230;51.502;10.800;2023-08-21T12:11:11;2.78;;;1.70;;
20138;SDS011;10230;51.502;10.800;2023-08-21T12:13:37;2.58;;;2.00;;
20138;SDS011;10230;51.502;10.800;2023-08-21T12:16:04;2.30;;;1.88;;
20138;SDS011;10230;51.502;10.800;2023-08-21T12:18:30;3.03;;;1.77;;
20138;SDS011;10230;51.502;10.800;2023-08-21T12:20:56;2.58;;;1.58;;
20138;SDS011;10230;51.502;10.800;2023-08-21T12:23:22;2.25;;;1.90;;
20138;SDS011;10230;51.502;10.800;2023-08-21T12:25:48;2.97;;;2.60;;
20138;SDS011;10230;51.502;10.800;2023-08-21T12:28:14;2.65;;;2.38;;
20138;SDS011;10230;51.502;10.800;2023-08-21T12:30:40;3.70;;;1.90;;
20138;SDS011;10230;51.502;10.800;2023-08-21T12:33:06;4.03;;;2.33;;
20138;SDS011;10230;51.502;10.800;2023-08-21T12:35:32;3.33;;;2.13;;
20138;SDS011;10230;51.502;10.800;2023-08-21T12:37:58;3.40;;;2.42;;
20138;SDS011;10230;51.502;10.800;2023-08-21T12:40:30;7.55;;;2.55;;
20138;SDS011;10230;51.502;10.800;2023-08-21T12:42:56;2.25;;;2.05;;
20138;SDS011;10230;51.502;10.800;2023-08-21T12:45:22;3.42;;;2.00;;
20138;SDS011;10230;51.502;10.800;2023-08-21T12:47:48;4.50;;;2.40;;
20138;SDS011;10230;51.502;10.800;2023-08-21T12:50:14;4.85;;;2.08;;
20138;SDS011;10230;51.502;10.800;2023-08-21T12:52:40;2.88;;;2.13;;
20138;SDS011;10230;51.502;10.800;2023-08-21T12:55:07;3.20;;;1.75;;
20138;SDS011;10230;51.502;10.800;2023-08-21T12:57:33;5.32;;;2.35;;
20138;SDS011;10230;51.502;10.800;2023-08-21T12:59:59;2.15;;;1.95;;
20138;SDS011;10230;51.502;10.800;2023-08-21T13:02:25;2.42;;;1.98;;
20138;SDS011;10230;51.502;10.800;2023-08-21T13:04:52;2.50;;;2.10;;
20138;SDS011;10230;51.502;10.800;2023-08-21T13:07:18;2.08;;;1.80;;
20138;SDS011;10230;51.502;10.800;2023-08-21T13:09:44;3.80;;;2.33;;
20138;SDS011;10230;51.502;10.800;2023-08-21T13:12:10;4.70;;;1.70;;
20138;SDS011;10230;51.502;10.800;2023-08-21T13:14:36;2.78;;;2.58;;
20138;SDS011;10230;51.502;10.800;2023-08-21T13:17:02;2.38;;;2.03;;
20138;SDS011;10230;51.502;10.800;2023-08-21T13:19:28;2.78;;;2.40;;
20138;SDS011;10230;51.502;10.800;2023-08-21T13:21:54;7.30;;;3.50;;
20138;SDS011;10230;51.502;10.800;2023-08-21T13:24:20;4.05;;;2.72;;
20138;SDS011;10230;51.502;10.800;2023-08-21T13:26:46;2.10;;;1.75;;
20138;SDS011;10230;51.502;10.800;2023-08-21T13:29:12;4.90;;;2.20;;
20138;SDS011;10230;51.502;10.800;2023-08-21T13:31:38;5.65;;;2.40;;
20138;SDS011;10230;51.502;10.800;2023-08-21T13:34:04;10.88;;;2.45;;
20138;SDS011;10230;51.502;10.800;2023-08-21T13:36:30;2.67;;;2.33;;
20138;SDS011;10230;51.502;10.800;2023-08-21T13:38:57;1.75;;;1.63;;
20138;SDS011;10230;51.502;10.800;2023-08-21T13:41:23;3.50;;;1.83;;
20138;SDS011;10230;51.502;10.800;2023-08-21T13:43:49;1.73;;;1.33;;
20138;SDS011;10230;51.502;10.800;2023-08-21T13:46:15;1.65;;;1.55;;
20138;SDS011;10230;51.502;10.800;2023-08-21T13:48:41;4.13;;;1.77;;
20138;SDS011;10230;51.502;10.800;2023-08-21T13:51:08;4.43;;;2.03;;
20138;SDS011;10230;51.502;10.800;2023-08-21T13:53:34;2.33;;;1.90;;
20138;SDS011;10230;51.502;10.800;2023-08-21T13:56:00;3.83;;;1.85;;
20138;SDS011;10230;51.502;10.800;2023-08-21T13:58:26;1.83;;;1.60;;
20138;SDS011;10230;51.502;10.800;2023-08-21T14:00:52;2.33;;;1.67;;
20138;SDS011;10230;51.502;10.800;2023-08-21T14:03:18;2.70;;;1.73;;
20138;SDS011;10230;51.502;10.800;2023-08-21T14:05:44;2.22;;;1.70;;
20138;SDS011;10230;51.502;10.800;2023-08-21T14:08:10;2.40;;;2.00;;
20138;SDS011;10230;51.502;10.800;2023-08-21T14:10:36;2.25;;;1.70;;
20138;SDS011;10230;51.502;10.800;2023-08-21T14:13:02;3.20;;;1.65;;
20138;SDS011;10230;51.502;10.800;2023-08-21T14:15:29;2.47;;;1.83;;
20138;SDS011;10230;51.502;10.800;2023-08-21T14:17:55;3.50;;;2.00;;
20138;SDS011;10230;51.502;10.800;2023-08-21T14:20:21;1.80;;;1.60;;
20138;SDS011;10230;51.502;10.800;2023-08-21T14:22:47;3.33;;;1.77;;
20138;SDS011;10230;51.502;10.800;2023-08-21T14:25:13;3.78;;;1.80;;
20138;SDS011;10230;51.502;10.800;2023-08-21T14:27:40;4.03;;;1.70;;
20138;SDS011;10230;51.502;10.800;2023-08-21T14:30:06;2.72;;;1.50;;
20138;SDS011;10230;51.502;10.800;2023-08-21T14:32:33;2.97;;;1.73;;
20138;SDS011;10230;51.502;10.800;2023-08-21T14:34:59;3.13;;;1.90;;
20138;SDS011;10230;51.502;10.800;2023-08-21T14:37:25;3.03;;;2.10;;
20138;SDS011;10230;51.502;10.800;2023-08-21T14:39:51;4.30;;;2.08;;
20138;SDS011;10230;51.502;10.800;2023-08-21T14:42:17;2.60;;;1.92;;
20138;SDS011;10230;51.502;10.800;2023-08-21T14:44:44;2.47;;;1.98;;
20138;SDS011;10230;51.502;10.800;2023-08-21T14:47:10;2.85;;;1.83;;